createdAt,value
2019-02-21T00:02:44.666Z,6.49
2019-02-21T00:05:33.821Z,6.53
2019-02-21T00:08:22.055Z,6.55
2019-02-21T00:11:10.670Z,6.58
2019-02-21T00:13:59.783Z,6.58
2019-02-21T00:16:48.715Z,6.61
2019-02-21T00:19:37.224Z,6.46
2019-02-21T00:22:26.399Z,6.45
2019-02-21T00:25:14.759Z,6.50
2019-02-21T00:28:03.035Z,6.49
2019-02-21T00:30:51.873Z,6.52
2019-02-21T00:33:40.720Z,6.51
2019-02-21T00:36:29.455Z,6.52
2019-02-21T00:39:17.718Z,6.47
2019-02-21T00:42:06.783Z,6.49
2019-02-21T00:44:55.374Z,6.50
2019-02-21T00:47:43.980Z,6.50
2019-02-21T00:50:32.904Z,6.49
2019-02-21T00:53:21.952Z,6.53
2019-02-21T00:56:10.279Z,6.56
2019-02-21T00:58:59.543Z,6.58
2019-02-21T01:01:48.056Z,6.58
2019-02-21T01:04:37.061Z,6.56
2019-02-21T01:07:25.990Z,6.52
2019-02-21T01:10:14.324Z,6.49
2019-02-21T01:13:03.025Z,6.47
2019-02-21T01:15:51.578Z,6.41
2019-02-21T01:18:40.388Z,6.41
2019-02-21T01:21:29.055Z,6.39
2019-02-21T01:24:17.954Z,6.36
2019-02-21T01:27:06.807Z,6.37
2019-02-21T01:29:55.670Z,6.34
2019-02-21T01:32:44.322Z,6.32
2019-02-21T01:35:33.472Z,6.26
2019-02-21T01:38:22.011Z,6.28
2019-02-21T01:41:10.818Z,6.25
2019-02-21T01:43:59.741Z,6.19
2019-02-21T01:46:48.547Z,6.19
2019-02-21T01:49:37.490Z,6.08
2019-02-21T01:52:26.277Z,6.05
2019-02-21T01:55:14.696Z,5.97
2019-02-21T01:58:03.910Z,5.96
2019-02-21T02:00:52.920Z,5.99
2019-02-21T02:03:41.218Z,6.03
2019-02-21T02:06:29.957Z,6.05
2019-02-21T02:09:18.936Z,6.12
2019-02-21T02:12:07.218Z,6.09
2019-02-21T02:14:56.449Z,6.11
2019-02-21T02:17:45.898Z,6.08
2019-02-21T02:20:34.311Z,6.07
2019-02-21T02:23:23.312Z,5.99
2019-02-21T02:26:12.430Z,6.02
2019-02-21T02:29:01.333Z,6.05
2019-02-21T02:31:50.414Z,5.99
2019-02-21T02:34:38.597Z,5.96
2019-02-21T02:37:27.048Z,5.95
2019-02-21T02:40:15.582Z,5.85
2019-02-21T02:43:04.300Z,5.76
2019-02-21T02:45:53.281Z,5.75
2019-02-21T02:48:43.162Z,5.69
2019-02-21T02:51:32.181Z,5.58
2019-02-21T02:54:21.059Z,5.58
2019-02-21T02:57:09.716Z,5.48
2019-02-21T02:59:58.640Z,5.48
2019-02-21T03:02:48.288Z,5.56
2019-02-21T03:05:37.023Z,5.59
2019-02-21T03:08:25.423Z,5.65
2019-02-21T03:11:14.398Z,5.73
2019-02-21T03:14:03.225Z,5.77
2019-02-21T03:16:52.356Z,5.78
2019-02-21T03:19:40.667Z,5.79
2019-02-21T03:22:29.366Z,5.81
2019-02-21T03:25:19.774Z,5.82
2019-02-21T03:28:08.270Z,5.83
2019-02-21T03:30:56.693Z,5.86
2019-02-21T03:33:45.506Z,5.84
2019-02-21T03:36:34.141Z,5.85
2019-02-21T03:39:22.252Z,5.85
2019-02-21T03:42:11.208Z,5.87
2019-02-21T03:44:59.758Z,5.86
2019-02-21T03:47:48.191Z,5.85
2019-02-21T03:50:36.950Z,5.81
2019-02-21T03:53:25.934Z,5.76
2019-02-21T03:56:14.086Z,5.70
2019-02-21T03:59:02.918Z,5.70
2019-02-21T04:01:51.510Z,5.64
2019-02-21T04:04:40.608Z,5.58
2019-02-21T04:07:28.781Z,5.53
2019-02-21T04:10:17.434Z,5.51
2019-02-21T04:13:06.268Z,5.51
2019-02-21T04:15:54.722Z,5.52
2019-02-21T04:18:43.786Z,5.50
2019-02-21T04:21:32.908Z,5.48
2019-02-21T04:24:21.680Z,5.44
2019-02-21T04:27:10.880Z,5.41
2019-02-21T04:29:59.197Z,5.37
2019-02-21T04:32:47.609Z,5.30
2019-02-21T04:35:36.791Z,5.24
2019-02-21T04:38:25.592Z,5.19
2019-02-21T04:41:14.437Z,5.13
2019-02-21T04:44:04.444Z,5.09
2019-02-21T04:46:53.270Z,5.05
2019-02-21T04:49:42.216Z,5.00
2019-02-21T04:52:30.438Z,5.00
2019-02-21T04:55:18.999Z,4.92
2019-02-21T04:58:07.083Z,4.88
2019-02-21T05:00:56.192Z,4.81
2019-02-21T05:03:44.824Z,4.79
2019-02-21T05:06:33.442Z,4.82
2019-02-21T05:09:22.512Z,4.83
2019-02-21T05:12:11.187Z,4.82
2019-02-21T05:14:59.934Z,4.78
2019-02-21T05:17:48.773Z,4.74
2019-02-21T05:20:37.551Z,4.67
2019-02-21T05:23:26.555Z,4.64
2019-02-21T05:26:19.999Z,4.51
2019-02-21T05:29:10.717Z,4.51
2019-02-21T05:32:14.712Z,4.48
2019-02-21T05:35:25.085Z,4.48
2019-02-21T05:38:32.197Z,4.46
2019-02-21T05:41:42.545Z,4.44
2019-02-21T05:44:36.295Z,4.42
2019-02-21T05:47:44.338Z,4.42
2019-02-21T05:51:06.981Z,4.43
2019-02-21T05:54:13.137Z,4.40
2019-02-21T05:57:19.185Z,4.36
2019-02-21T06:00:26.004Z,4.31
2019-02-21T06:03:52.135Z,4.24
2019-02-21T06:06:58.983Z,4.21
2019-02-21T06:10:03.540Z,4.22
2019-02-21T06:13:07.325Z,4.22
2019-02-21T06:16:04.567Z,4.28
2019-02-21T06:19:18.966Z,4.33
2019-02-21T06:22:17.381Z,4.36
2019-02-21T06:25:30.904Z,4.37
2019-02-21T06:28:42.339Z,4.37
2019-02-21T06:31:30.880Z,4.34
2019-02-21T06:34:19.641Z,4.31
2019-02-21T06:37:08.151Z,4.28
2019-02-21T06:39:56.325Z,4.30
2019-02-21T06:42:45.317Z,4.31
2019-02-21T06:45:34.541Z,4.31
2019-02-21T06:48:23.152Z,4.34
2019-02-21T06:51:11.580Z,4.37
2019-02-21T06:54:00.311Z,4.40
2019-02-21T06:56:48.914Z,4.46
2019-02-21T06:59:42.486Z,4.52
2019-02-21T07:02:28.260Z,4.55
2019-02-21T07:05:17.016Z,4.59
2019-02-21T07:08:05.551Z,4.67
2019-02-21T07:11:05.433Z,4.79
2019-02-21T07:13:44.599Z,4.85
2019-02-21T07:16:32.789Z,4.96
2019-02-21T07:19:20.963Z,5.04
2019-02-21T07:22:09.523Z,5.13
2019-02-21T07:25:03.348Z,5.14
2019-02-21T07:27:51.719Z,5.18
2019-02-21T07:30:42.947Z,5.24
2019-02-21T07:33:30.679Z,5.31
2019-02-21T07:36:19.536Z,5.38
2019-02-21T07:39:18.323Z,5.38
2019-02-21T07:41:58.980Z,5.44
2019-02-21T07:44:48.207Z,5.54
2019-02-21T07:47:36.497Z,5.64
2019-02-21T07:50:25.372Z,5.77
2019-02-21T07:53:14.232Z,5.82
2019-02-21T07:56:03.056Z,5.90
2019-02-21T07:58:51.677Z,5.96
2019-02-21T08:01:40.593Z,6.11
2019-02-21T08:04:29.165Z,6.21
2019-02-21T08:07:17.236Z,6.31
2019-02-21T08:10:06.542Z,6.43
2019-02-21T08:12:54.788Z,6.55
2019-02-21T08:15:43.275Z,6.65
2019-02-21T08:18:32.160Z,6.79
2019-02-21T08:21:20.616Z,6.86
2019-02-21T08:24:09.654Z,6.98
2019-02-21T08:26:58.519Z,7.11
2019-02-21T08:29:47.533Z,7.19
2019-02-21T08:32:54.770Z,7.31
2019-02-21T08:35:43.559Z,7.38
2019-02-21T08:38:32.414Z,7.48
2019-02-21T08:41:21.616Z,7.57
2019-02-21T08:44:10.780Z,7.72
2019-02-21T08:46:59.367Z,7.83
2019-02-21T08:49:47.990Z,7.93
2019-02-21T08:52:36.457Z,8.00
2019-02-21T08:55:26.162Z,8.10
2019-02-21T08:58:15.280Z,8.24
2019-02-21T09:01:04.224Z,8.34
2019-02-21T09:03:52.707Z,8.46
2019-02-21T09:06:41.844Z,8.53
2019-02-21T09:09:30.043Z,8.58
2019-02-21T09:12:19.052Z,8.65
2019-02-21T09:15:09.909Z,8.71
2019-02-21T09:17:58.426Z,8.79
2019-02-21T09:20:47.846Z,8.85
2019-02-21T09:23:36.719Z,8.95
2019-02-21T09:26:25.352Z,9.06
2019-02-21T09:29:13.896Z,9.16
2019-02-21T09:32:02.821Z,9.27
2019-02-21T09:34:51.404Z,9.40
2019-02-21T09:37:40.014Z,9.48
2019-02-21T09:40:28.818Z,9.58
2019-02-21T09:43:18.247Z,9.69
2019-02-21T09:46:07.398Z,9.75
2019-02-21T09:48:55.676Z,9.82
2019-02-21T09:51:44.528Z,9.89
2019-02-21T09:54:33.376Z,10.01
2019-02-21T09:57:22.412Z,10.11
2019-02-21T10:00:14.376Z,10.19
2019-02-21T10:03:03.091Z,10.23
2019-02-21T10:05:51.296Z,10.31
2019-02-21T10:08:39.856Z,10.35
2019-02-21T10:11:28.563Z,10.49
2019-02-21T10:14:17.519Z,10.62
2019-02-21T10:17:06.443Z,10.59
2019-02-21T10:19:57.437Z,10.71
2019-02-21T10:22:46.202Z,10.94
2019-02-21T10:25:35.126Z,11.08
2019-02-21T10:28:25.480Z,11.26
2019-02-21T10:31:14.071Z,11.31
2019-02-21T10:34:02.629Z,11.33
2019-02-21T10:36:51.239Z,11.43
2019-02-21T10:39:40.009Z,11.49
2019-02-21T10:42:28.481Z,11.50
2019-02-21T10:45:18.343Z,11.57
2019-02-21T10:48:06.756Z,11.47
2019-02-21T10:50:55.848Z,11.44
2019-02-21T10:53:44.340Z,11.53
2019-02-21T10:56:33.285Z,11.47
2019-02-21T10:59:22.408Z,11.58
2019-02-21T11:02:11.407Z,11.61
2019-02-21T11:05:00.583Z,11.61
2019-02-21T11:07:49.247Z,11.64
2019-02-21T11:10:37.600Z,11.52
2019-02-21T11:13:26.112Z,11.62
2019-02-21T11:16:14.805Z,11.55
2019-02-21T11:19:03.636Z,11.48
2019-02-21T11:21:52.304Z,11.46
2019-02-21T11:24:41.450Z,11.56
2019-02-21T11:27:30.114Z,11.44
2019-02-21T11:30:19.224Z,11.38
2019-02-21T11:33:07.201Z,11.48
2019-02-21T11:35:55.683Z,11.36
2019-02-21T11:38:44.387Z,11.48
2019-02-21T11:41:33.399Z,11.53
2019-02-21T11:44:22.450Z,11.61
2019-02-21T11:47:10.730Z,11.62
2019-02-21T11:49:59.411Z,11.67
2019-02-21T11:52:48.375Z,11.84
2019-02-21T11:55:37.639Z,12.07
2019-02-21T11:58:26.602Z,12.32
2019-02-21T12:01:15.700Z,12.54
2019-02-21T12:04:04.495Z,12.70
2019-02-21T12:06:53.256Z,12.90
2019-02-21T12:09:41.778Z,12.88
2019-02-21T12:12:30.826Z,12.97
2019-02-21T12:15:19.669Z,12.98
2019-02-21T12:18:08.793Z,12.93
2019-02-21T12:20:57.781Z,12.75
2019-02-21T12:23:46.527Z,12.73
2019-02-21T12:26:35.902Z,12.94
2019-02-21T12:29:24.888Z,12.97
2019-02-21T12:32:13.099Z,13.00
2019-02-21T12:35:01.577Z,12.97
2019-02-21T12:37:50.069Z,13.07
2019-02-21T12:40:39.198Z,12.99
2019-02-21T12:43:28.030Z,13.01
2019-02-21T12:46:16.869Z,12.96
2019-02-21T12:49:05.908Z,13.00
2019-02-21T12:51:54.336Z,13.17
2019-02-21T12:54:43.123Z,12.95
2019-02-21T12:57:31.287Z,12.81
2019-02-21T13:00:19.790Z,12.86
2019-02-21T13:03:08.787Z,13.02
2019-02-21T13:05:57.872Z,13.10
2019-02-21T13:08:46.940Z,13.28
2019-02-21T13:11:35.690Z,13.34
2019-02-21T13:14:24.468Z,13.40
2019-02-21T13:17:13.732Z,13.67
2019-02-21T13:20:02.706Z,13.75
2019-02-21T13:22:51.519Z,13.63
2019-02-21T13:25:41.117Z,13.65
2019-02-21T13:28:29.290Z,13.59
2019-02-21T13:31:18.254Z,13.91
2019-02-21T13:34:07.252Z,14.02
2019-02-21T13:36:56.015Z,14.08
2019-02-21T13:39:44.728Z,13.87
2019-02-21T13:42:33.501Z,13.70
2019-02-21T13:45:22.200Z,13.44
2019-02-21T13:48:11.125Z,13.30
2019-02-21T13:51:00.445Z,13.11
2019-02-21T13:53:52.135Z,13.04
2019-02-21T13:56:39.785Z,12.96
2019-02-21T13:59:28.129Z,13.07
2019-02-21T14:02:17.242Z,13.16
2019-02-21T14:05:06.357Z,13.26
2019-02-21T14:07:54.614Z,13.16
2019-02-21T14:10:44.356Z,13.13
2019-02-21T14:13:33.609Z,13.17
2019-02-21T14:16:22.678Z,13.14
2019-02-21T14:19:12.089Z,13.10
2019-02-21T14:22:05.886Z,13.14
2019-02-21T14:24:54.883Z,13.28
2019-02-21T14:27:44.029Z,13.25
2019-02-21T14:30:33.186Z,13.32
2019-02-21T14:33:22.569Z,13.22
2019-02-21T14:36:15.543Z,13.14
2019-02-21T14:39:01.546Z,13.16
2019-02-21T14:41:50.722Z,13.13
2019-02-21T14:44:40.004Z,13.12
2019-02-21T14:47:28.797Z,13.13
2019-02-21T14:50:18.272Z,13.30
2019-02-21T14:53:06.972Z,13.26
2019-02-21T14:55:56.196Z,13.24
2019-02-21T14:58:45.050Z,13.33
2019-02-21T15:01:33.781Z,13.37
2019-02-21T15:04:23.408Z,13.43
2019-02-21T15:07:12.286Z,13.45
2019-02-21T15:10:01.579Z,13.55
2019-02-21T15:12:50.888Z,13.59
2019-02-21T15:15:39.690Z,13.59
2019-02-21T15:18:28.476Z,13.58
2019-02-21T15:21:17.374Z,13.45
2019-02-21T15:24:07.776Z,13.41
2019-02-21T15:27:07.880Z,13.34
2019-02-21T15:29:47.055Z,13.24
2019-02-21T15:32:36.334Z,13.09
2019-02-21T15:35:25.351Z,12.99
2019-02-21T15:38:19.890Z,12.96
2019-02-21T15:41:09.738Z,12.87
2019-02-21T15:43:59.515Z,12.81
2019-02-21T15:46:48.919Z,12.80
2019-02-21T15:49:38.313Z,12.77
2019-02-21T15:52:27.543Z,12.75
2019-02-21T15:55:16.816Z,12.72
2019-02-21T15:58:06.471Z,12.74
2019-02-21T16:00:55.724Z,12.68
2019-02-21T16:03:44.643Z,12.63
2019-02-21T16:06:33.103Z,12.62
2019-02-21T16:09:25.030Z,12.63
2019-02-21T16:12:13.163Z,12.60
2019-02-21T16:15:01.880Z,12.61
2019-02-21T16:17:50.410Z,12.61
2019-02-21T16:20:39.737Z,12.58
2019-02-21T16:23:28.505Z,12.54
2019-02-21T16:26:17.193Z,12.49
2019-02-21T16:29:06.223Z,12.45
2019-02-21T16:31:55.735Z,12.42
2019-02-21T16:34:44.422Z,12.35
2019-02-21T16:37:33.414Z,12.30
2019-02-21T16:40:22.434Z,12.27
2019-02-21T16:43:14.932Z,12.22
2019-02-21T16:46:07.746Z,12.18
2019-02-21T16:48:54.430Z,12.11
2019-02-21T16:51:43.559Z,12.08
2019-02-21T16:54:32.443Z,12.07
2019-02-21T16:57:21.088Z,12.00
2019-02-21T17:00:11.555Z,12.00
2019-02-21T17:03:00.014Z,11.95
2019-02-21T17:05:48.628Z,11.91
2019-02-21T17:08:37.660Z,11.86
2019-02-21T17:11:26.332Z,11.81
2019-02-21T17:14:16.483Z,11.82
2019-02-21T17:17:05.253Z,11.84
2019-02-21T17:19:54.473Z,11.83
2019-02-21T17:22:42.849Z,11.79
2019-02-21T17:25:32.056Z,11.72
2019-02-21T17:28:21.900Z,11.74
2019-02-21T17:31:11.695Z,11.74
2019-02-21T17:34:00.947Z,11.72
2019-02-21T17:36:50.046Z,11.68
2019-02-21T17:39:39.323Z,11.62
2019-02-21T17:42:28.363Z,11.56
2019-02-21T17:45:17.443Z,11.56
2019-02-21T17:48:06.198Z,11.54
2019-02-21T17:50:55.182Z,11.48
2019-02-21T17:53:44.122Z,11.49
2019-02-21T17:56:32.984Z,11.42
2019-02-21T17:59:21.579Z,11.37
2019-02-21T18:02:10.114Z,11.31
2019-02-21T18:04:59.032Z,11.29
2019-02-21T18:07:48.072Z,11.30
2019-02-21T18:10:36.628Z,11.30
2019-02-21T18:13:27.652Z,11.25
2019-02-21T18:16:16.865Z,11.21
2019-02-21T18:19:05.714Z,11.15
2019-02-21T18:21:54.494Z,11.08
2019-02-21T18:24:43.753Z,10.97
2019-02-21T18:27:32.638Z,10.88
2019-02-21T18:30:21.992Z,10.83
2019-02-21T18:33:10.771Z,10.77
2019-02-21T18:35:59.634Z,10.69
2019-02-21T18:38:49.221Z,10.71
2019-02-21T18:41:38.479Z,10.66
2019-02-21T18:44:27.141Z,10.63
2019-02-21T18:47:15.910Z,10.56
2019-02-21T18:50:05.520Z,10.55
2019-02-21T18:52:53.801Z,10.49
2019-02-21T18:55:42.839Z,10.46
2019-02-21T18:58:31.837Z,10.41
2019-02-21T19:01:20.826Z,10.38
2019-02-21T19:04:09.389Z,10.36
2019-02-21T19:06:58.364Z,10.32
2019-02-21T19:09:47.546Z,10.29
2019-02-21T19:12:36.267Z,10.26
2019-02-21T19:15:26.643Z,10.25
2019-02-21T19:18:15.591Z,10.25
2019-02-21T19:21:04.516Z,10.21
2019-02-21T19:23:53.716Z,10.25
2019-02-21T19:26:43.247Z,10.21
2019-02-21T19:29:31.479Z,10.17
2019-02-21T19:32:20.916Z,10.11
2019-02-21T19:35:09.936Z,10.11
2019-02-21T19:38:09.458Z,10.07
2019-02-21T19:40:50.141Z,10.03
2019-02-21T19:43:38.956Z,9.95
2019-02-21T19:46:28.060Z,9.92
2019-02-21T19:49:16.860Z,9.93
2019-02-21T19:52:06.010Z,9.93
2019-02-21T19:54:54.848Z,9.93
2019-02-21T19:57:43.165Z,9.96
2019-02-21T20:00:33.693Z,10.02
2019-02-21T20:03:23.305Z,10.07
2019-02-21T20:06:12.730Z,10.08
2019-02-21T20:09:01.381Z,10.06
2019-02-21T20:11:50.371Z,10.02
2019-02-21T20:14:39.527Z,10.02
2019-02-21T20:17:28.286Z,10.04
2019-02-21T20:20:17.390Z,9.99
2019-02-21T20:23:06.550Z,9.98
2019-02-21T20:25:55.921Z,9.94
2019-02-21T20:28:44.544Z,9.91
2019-02-21T20:31:33.835Z,9.88
2019-02-21T20:34:22.759Z,9.90
2019-02-21T20:37:12.020Z,9.84
2019-02-21T20:40:00.628Z,9.82
2019-02-21T20:42:49.800Z,9.80
2019-02-21T20:45:38.618Z,9.77
2019-02-21T20:48:30.512Z,9.76
2019-02-21T20:51:18.347Z,9.75
2019-02-21T20:54:07.300Z,9.70
2019-02-21T20:56:56.554Z,9.59
2019-02-21T20:59:45.677Z,9.53
2019-02-21T21:02:34.998Z,9.43
2019-02-21T21:05:23.818Z,9.38
2019-02-21T21:08:12.617Z,9.30
2019-02-21T21:11:02.008Z,9.22
2019-02-21T21:13:50.752Z,9.21
2019-02-21T21:16:39.802Z,9.15
2019-02-21T21:19:28.856Z,9.11
2019-02-21T21:22:17.306Z,9.03
2019-02-21T21:25:08.028Z,9.02
2019-02-21T21:27:56.099Z,9.00
2019-02-21T21:30:45.145Z,8.96
2019-02-21T21:33:33.910Z,8.95
2019-02-21T21:36:23.504Z,8.95
2019-02-21T21:39:13.016Z,8.92
2019-02-21T21:42:03.079Z,8.88
2019-02-21T21:44:52.513Z,8.86
2019-02-21T21:47:41.319Z,8.83
2019-02-21T21:50:30.016Z,8.85
2019-02-21T21:53:18.900Z,8.82
2019-02-21T21:56:07.892Z,8.78
2019-02-21T21:58:57.274Z,8.75
2019-02-21T22:01:47.649Z,8.80
2019-02-21T22:04:35.993Z,8.80
2019-02-21T22:07:24.767Z,8.84
2019-02-21T22:10:14.566Z,8.82
2019-02-21T22:13:02.999Z,8.82
2019-02-21T22:15:52.449Z,8.79
2019-02-21T22:18:41.681Z,8.80
2019-02-21T22:21:30.887Z,8.78
2019-02-21T22:24:22.553Z,8.80
2019-02-21T22:27:11.084Z,8.84
2019-02-21T22:30:00.189Z,8.83
2019-02-21T22:32:49.941Z,8.81
2019-02-21T22:35:38.995Z,8.81
2019-02-21T22:38:27.586Z,8.87
2019-02-21T22:41:16.741Z,8.95
2019-02-21T22:44:06.171Z,8.89
2019-02-21T22:46:55.200Z,8.85
2019-02-21T22:49:44.307Z,8.86
2019-02-21T22:52:33.155Z,8.86
2019-02-21T22:55:21.892Z,8.84
2019-02-21T22:58:10.785Z,8.94
2019-02-21T23:01:38.473Z,8.98
2019-02-21T23:04:45.165Z,8.94
2019-02-21T23:07:42.585Z,8.90
2019-02-21T23:10:30.893Z,8.90
2019-02-21T23:13:19.046Z,8.86
2019-02-21T23:16:07.643Z,8.89
2019-02-21T23:18:56.491Z,8.86
2019-02-21T23:21:45.409Z,8.91
2019-02-21T23:24:34.277Z,8.93
2019-02-21T23:27:22.676Z,8.91
2019-02-21T23:30:13.129Z,8.75
2019-02-21T23:33:01.840Z,8.74
2019-02-21T23:35:50.421Z,8.73
2019-02-21T23:38:38.982Z,8.79
2019-02-21T23:41:27.863Z,8.74
2019-02-21T23:44:16.609Z,8.68
2019-02-21T23:47:05.796Z,8.74
2019-02-21T23:49:54.773Z,8.74
2019-02-21T23:52:43.263Z,8.78
2019-02-21T23:55:32.064Z,8.72
2019-02-21T23:58:20.717Z,8.77
